Time;durP1;ratioP1;P1;durP2;ratioP2;P2;SDS_P1;SDS_P2;PMS_P1;PMS_P2;Temp;Humidity;BMP_temperature;BMP_pressure;BME280_temperature;BME280_humidity;BME280_pressure;Samples;Min_cycle;Max_cycle;Signal;HPM_P1;HPM_P2
2021/12/02 00:00:54;;;;;;;0.00;0.00;;;5.20;99.90;;;;;;4996115;28;21287;-77
2021/12/02 00:03:20;;;;;;;2.20;0.00;;;5.20;99.90;;;;;;4978492;28;20022;-77
2021/12/02 00:05:46;;;;;;;1.50;0.00;;;5.20;99.90;;;;;;4995642;28;20026;-77
2021/12/02 00:08:12;;;;;;;0.22;0.00;;;5.10;99.90;;;;;;4978588;28;20023;-76
2021/12/02 00:10:40;;;;;;;1.25;0.00;;;4.90;99.90;;;;;;4978658;28;20118;-76
2021/12/02 00:13:05;;;;;;;4.63;0.00;;;4.80;99.90;;;;;;4995106;28;20024;-77
2021/12/02 00:23:45;;;;;;;1.23;0.00;;;4.10;99.90;;;;;;4976670;28;20046;-77
2021/12/02 00:26:17;;;;;;;2.25;0.00;;;4.00;99.90;;;;;;4966202;28;20507;-77
2021/12/02 00:28:43;;;;;;;0.95;0.00;;;3.90;99.90;;;;;;4977988;28;20172;-77
2021/12/02 00:31:17;;;;;;;1.05;0.47;;;3.80;99.90;;;;;;4995103;28;20018;-77
2021/12/02 00:33:51;;;;;;;2.22;0.00;;;3.70;99.90;;;;;;4994927;28;20539;-77
2021/12/02 00:36:18;;;;;;;0.10;0.00;;;3.60;99.90;;;;;;4977822;28;20419;-77
2021/12/02 00:38:46;;;;;;;1.40;0.00;;;3.50;99.90;;;;;;4977543;28;20491;-77
2021/12/02 00:41:15;;;;;;;1.13;0.00;;;3.50;99.90;;;;;;4994894;28;20484;-78
2021/12/02 00:43:40;;;;;;;1.95;0.00;;;3.40;99.90;;;;;;4977244;28;20049;-78
2021/12/02 00:46:10;;;;;;;0.52;0.00;;;3.30;99.90;;;;;;4994801;28;20076;-78
2021/12/02 00:48:37;;;;;;;1.85;0.00;;;3.30;99.90;;;;;;4994779;28;20465;-78
2021/12/02 00:51:04;;;;;;;0.28;0.00;;;3.20;99.90;;;;;;4994306;28;20030;-78
2021/12/02 00:53:32;;;;;;;0.93;0.00;;;3.20;99.90;;;;;;4977555;28;20182;-77
2021/12/02 00:56:03;;;;;;;1.80;0.00;;;3.40;99.90;;;;;;4977309;28;20018;-77
2021/12/02 00:58:30;;;;;;;4.30;0.00;;;3.70;99.90;;;;;;4994685;28;20058;-77
2021/12/02 01:00:57;;;;;;;1.63;0.30;;;3.90;99.90;;;;;;4995259;28;20021;-77
2021/12/02 01:03:25;;;;;;;0.17;0.00;;;4.00;99.90;;;;;;4994804;28;20031;-77
2021/12/02 01:05:52;;;;;;;0.80;0.00;;;4.00;99.90;;;;;;4994918;28;20053;-77
2021/12/02 01:08:20;;;;;;;1.77;0.47;;;4.00;99.90;;;;;;4994443;28;20023;-76
2021/12/02 01:10:46;;;;;;;2.83;0.00;;;4.00;99.90;;;;;;4977774;28;20018;-76
2021/12/02 01:13:11;;;;;;;0.90;0.00;;;4.00;99.90;;;;;;4994463;28;20022;-76
2021/12/02 01:15:37;;;;;;;1.73;0.20;;;3.90;99.90;;;;;;4994932;28;20113;-76
2021/12/02 01:18:03;;;;;;;0.80;0.57;;;3.80;99.90;;;;;;4993906;28;20058;-77
2021/12/02 01:20:31;;;;;;;3.40;0.00;;;3.70;99.90;;;;;;4994163;28;20035;-76
2021/12/02 01:22:59;;;;;;;5.55;0.22;;;3.60;99.90;;;;;;4976823;28;20042;-77
2021/12/02 01:25:27;;;;;;;1.27;0.00;;;3.60;99.90;;;;;;4994594;28;20113;-78
2021/12/02 01:27:53;;;;;;;2.78;0.22;;;3.60;99.90;;;;;;4994104;28;20111;-77
2021/12/02 01:30:18;;;;;;;0.63;0.10;;;3.50;99.90;;;;;;4994363;28;20054;-78
2021/12/02 01:32:46;;;;;;;2.08;0.20;;;3.50;99.90;;;;;;4976266;28;20041;-78
2021/12/02 01:35:12;;;;;;;0.77;0.00;;;3.50;99.90;;;;;;4976381;28;20026;-78
2021/12/02 01:37:39;;;;;;;4.53;0.10;;;3.60;99.90;;;;;;4976498;28;20022;-78
2021/12/02 01:40:05;;;;;;;3.85;0.00;;;3.70;99.90;;;;;;4977205;28;20406;-78
2021/12/02 01:42:35;;;;;;;3.92;0.22;;;3.80;99.90;;;;;;4994806;28;20075;-78
2021/12/02 01:45:02;;;;;;;1.98;0.10;;;3.90;99.90;;;;;;4994886;28;20037;-78
2021/12/02 01:47:32;;;;;;;1.55;0.00;;;3.90;99.90;;;;;;4976190;28;20030;-78
2021/12/02 01:50:04;;;;;;;2.53;0.00;;;4.00;99.90;;;;;;4977322;28;20046;-78
2021/12/02 01:52:31;;;;;;;2.95;0.65;;;4.00;99.90;;;;;;4976626;28;20100;-78
2021/12/02 01:55:10;;;;;;;1.05;0.00;;;3.90;99.90;;;;;;4977248;28;20166;-78
2021/12/02 01:57:38;;;;;;;;;;;3.90;99.90;;;;;;4994417;28;20073;-78
2021/12/02 02:00:07;;;;;;;1.13;0.00;;;4.00;99.90;;;;;;4977294;28;20298;-78
2021/12/02 02:02:36;;;;;;;1.65;0.00;;;4.00;99.90;;;;;;4997026;28;20045;-78
2021/12/02 02:05:06;;;;;;;1.25;0.00;;;3.90;99.90;;;;;;4980109;28;20049;-78
2021/12/02 02:07:34;;;;;;;2.78;0.00;;;4.00;99.90;;;;;;4981267;28;20027;-78
2021/12/02 02:10:00;;;;;;;3.70;0.00;;;4.00;99.90;;;;;;4980999;28;20114;-78
2021/12/02 02:12:25;;;;;;;3.20;0.10;;;4.10;99.90;;;;;;4998386;28;20105;-78
2021/12/02 02:14:52;;;;;;;1.08;0.00;;;4.10;99.90;;;;;;4998396;28;20022;-78
2021/12/02 02:17:27;;;;;;;2.40;0.20;;;4.10;99.90;;;;;;4997963;28;20030;-78
2021/12/02 02:19:54;;;;;;;4.68;0.00;;;4.20;99.90;;;;;;4998351;28;20048;-77
2021/12/02 02:22:22;;;;;;;5.28;0.10;;;4.20;99.90;;;;;;4980667;28;20033;-78
2021/12/02 02:24:49;;;;;;;1.23;0.00;;;4.20;99.90;;;;;;4997945;28;20026;-78
2021/12/02 02:27:15;;;;;;;4.50;0.03;;;4.20;99.90;;;;;;4997731;28;20121;-78
2021/12/02 02:29:40;;;;;;;2.50;0.00;;;4.20;99.90;;;;;;4980370;28;20463;-78
2021/12/02 02:32:06;;;;;;;3.67;0.00;;;4.20;99.90;;;;;;4997489;28;20583;-78
2021/12/02 02:34:32;;;;;;;0.38;0.00;;;4.20;99.90;;;;;;4980006;28;20022;-77
2021/12/02 02:37:01;;;;;;;4.63;0.00;;;4.10;99.90;;;;;;4980311;28;20014;-77
2021/12/02 02:39:29;;;;;;;2.08;0.00;;;4.10;99.90;;;;;;4980338;28;20615;-77
2021/12/02 02:42:00;;;;;;;6.07;0.00;;;4.00;99.90;;;;;;4997369;28;20018;-77
2021/12/02 02:44:29;;;;;;;2.17;0.00;;;4.00;99.90;;;;;;4998343;28;20026;-77
2021/12/02 02:46:55;;;;;;;1.73;0.00;;;3.90;99.90;;;;;;4996823;28;20014;-77
2021/12/02 02:49:21;;;;;;;3.35;0.15;;;3.80;99.90;;;;;;4979768;28;20026;-77
2021/12/02 02:51:47;;;;;;;1.75;0.00;;;3.70;99.90;;;;;;4987289;28;20538;-78
2021/12/02 02:54:16;;;;;;;3.45;0.00;;;3.60;99.90;;;;;;4997900;28;20077;-77
2021/12/02 02:56:56;;;;;;;2.33;0.00;;;3.60;99.90;;;;;;4996938;28;20085;-77
2021/12/02 03:04:52;;;;;;;2.30;0.00;;;3.60;99.90;;;;;;4997971;28;20577;-77
2021/12/02 03:07:27;;;;;;;2.47;0.43;;;3.70;99.90;;;;;;4979367;28;20030;-77
2021/12/02 03:16:36;;;;;;;4.78;0.55;;;3.80;99.90;;;;;;4996879;28;20030;-77
2021/12/02 03:17:34;;;;;;;2.50;0.00;;;3.90;99.90;;;;;;4996311;28;20404;-77
2021/12/02 03:20:00;;;;;;;1.75;0.00;;;4.00;99.90;;;;;;4996936;28;20030;-77
2021/12/02 03:22:27;;;;;;;0.60;0.00;;;4.00;99.90;;;;;;4996955;28;20483;-77
2021/12/02 03:24:53;;;;;;;1.08;0.00;;;4.10;99.90;;;;;;4996908;28;20084;-76
2021/12/02 03:27:18;;;;;;;5.82;0.15;;;4.10;99.90;;;;;;4996501;28;20038;-77
2021/12/02 03:29:44;;;;;;;0.55;0.00;;;4.10;99.90;;;;;;4996589;28;20026;-77
2021/12/02 03:32:10;;;;;;;4.07;0.00;;;4.10;99.90;;;;;;4996578;28;20030;-77
2021/12/02 03:34:37;;;;;;;0.98;0.22;;;4.10;99.90;;;;;;4996279;28;20022;-77
2021/12/02 03:37:03;;;;;;;3.15;0.00;;;4.00;99.90;;;;;;4995842;28;20056;-77
2021/12/02 03:39:29;;;;;;;2.38;0.52;;;4.00;99.90;;;;;;4996522;28;20377;-77
2021/12/02 03:41:56;;;;;;;5.18;0.20;;;4.00;99.90;;;;;;4996642;28;20462;-77
2021/12/02 03:44:22;;;;;;;2.85;0.00;;;3.90;99.90;;;;;;4996911;28;20023;-77
2021/12/02 03:46:49;;;;;;;3.83;0.10;;;3.80;99.90;;;;;;4996367;28;20494;-77
2021/12/02 03:49:14;;;;;;;3.40;0.00;;;3.70;99.90;;;;;;4996050;28;20450;-77
2021/12/02 03:51:40;;;;;;;2.42;0.00;;;3.60;99.90;;;;;;4996034;28;20055;-77
2021/12/02 03:54:06;;;;;;;2.28;0.43;;;3.60;99.90;;;;;;4978971;28;20026;-77
2021/12/02 03:56:33;;;;;;;1.20;0.00;;;3.50;99.90;;;;;;4978225;28;20072;-78
2021/12/02 03:58:58;;;;;;;2.28;0.15;;;3.60;99.90;;;;;;4996315;28;20486;-77
2021/12/02 04:01:24;;;;;;;1.60;0.00;;;3.60;99.90;;;;;;4996272;28;20057;-77
2021/12/02 04:03:49;;;;;;;5.60;0.00;;;3.60;99.90;;;;;;4995930;28;20026;-78
2021/12/02 04:06:15;;;;;;;2.92;0.00;;;3.60;99.90;;;;;;4996118;28;20014;-78
2021/12/02 04:16:22;;;;;;;5.78;0.00;;;3.70;99.90;;;;;;4995824;28;20030;-78
2021/12/02 04:18:49;;;;;;;3.53;0.00;;;3.70;99.90;;;;;;4995407;28;20026;-78
2021/12/02 04:21:14;;;;;;;1.00;0.00;;;3.60;99.90;;;;;;4995895;28;20023;-78
2021/12/02 04:23:40;;;;;;;6.30;0.43;;;3.50;99.90;;;;;;4977830;28;20122;-78
2021/12/02 04:26:06;;;;;;;4.53;0.00;;;3.40;99.90;;;;;;4978135;28;20061;-78
2021/12/02 04:28:32;;;;;;;2.55;0.03;;;3.40;99.90;;;;;;4978056;28;20022;-77
2021/12/02 04:30:58;;;;;;;0.40;0.00;;;3.30;99.90;;;;;;4995608;28;20388;-77
2021/12/02 04:33:23;;;;;;;2.00;0.00;;;3.20;99.90;;;;;;4995378;28;20065;-77
2021/12/02 04:35:49;;;;;;;1.40;0.00;;;3.10;99.90;;;;;;4978028;28;20019;-77
2021/12/02 04:38:15;;;;;;;0.50;0.00;;;3.10;99.90;;;;;;4995418;28;20027;-77
2021/12/02 04:40:41;;;;;;;1.98;0.00;;;3.10;99.90;;;;;;4995446;28;20033;-77
2021/12/02 04:43:08;;;;;;;1.85;0.00;;;3.10;99.90;;;;;;4977459;28;20034;-76
2021/12/02 04:45:34;;;;;;;0.95;0.00;;;3.10;99.90;;;;;;4995497;28;20034;-76
2021/12/02 04:47:59;;;;;;;1.77;0.00;;;3.10;99.90;;;;;;4995154;28;20172;-77
2021/12/02 04:50:25;;;;;;;0.50;0.28;;;3.10;99.90;;;;;;4996223;28;20461;-77
2021/12/02 04:52:52;;;;;;;1.67;0.00;;;3.10;99.90;;;;;;4977176;28;20026;-77
2021/12/02 04:55:20;;;;;;;2.58;0.10;;;3.10;99.90;;;;;;4995227;28;20030;-78
2021/12/02 04:57:46;;;;;;;1.17;0.05;;;3.10;99.90;;;;;;4994837;28;20038;-78
2021/12/02 05:00:12;;;;;;;0.43;0.00;;;3.10;99.90;;;;;;4977875;28;20035;-77
2021/12/02 05:02:40;;;;;;;1.67;0.00;;;3.00;99.90;;;;;;4977409;28;20109;-77
2021/12/02 05:05:06;;;;;;;0.45;0.00;;;3.00;99.90;;;;;;4977853;28;20025;-77
2021/12/02 05:07:32;;;;;;;0.15;0.00;;;2.90;99.90;;;;;;4994792;28;20037;-77
2021/12/02 05:09:57;;;;;;;0.10;0.00;;;2.90;99.90;;;;;;4995159;28;20023;-77
2021/12/02 05:12:23;;;;;;;2.10;0.00;;;2.80;99.90;;;;;;4995057;28;20027;-77
2021/12/02 05:14:49;;;;;;;0.82;0.00;;;2.70;99.90;;;;;;4995047;28;20033;-77
2021/12/02 05:17:14;;;;;;;0.00;0.00;;;2.60;99.90;;;;;;4977335;28;20027;-77
2021/12/02 05:19:40;;;;;;;1.85;0.00;;;2.60;99.90;;;;;;4995142;28;20030;-77
2021/12/02 05:22:05;;;;;;;0.00;0.00;;;2.60;99.90;;;;;;4994856;28;20018;-77
2021/12/02 05:24:31;;;;;;;1.13;0.43;;;2.50;99.90;;;;;;4994878;28;20105;-77
2021/12/02 05:26:57;;;;;;;4.15;0.20;;;2.60;99.90;;;;;;4994695;28;20022;-77
2021/12/02 05:29:22;;;;;;;1.98;0.00;;;2.60;99.90;;;;;;4994328;28;20034;-77
2021/12/02 05:31:48;;;;;;;2.80;0.35;;;2.70;99.90;;;;;;4994158;28;20129;-77
2021/12/02 05:34:13;;;;;;;0.15;0.08;;;2.90;99.90;;;;;;4977695;28;20027;-77
2021/12/02 05:36:39;;;;;;;2.38;0.00;;;3.00;99.90;;;;;;4996743;28;20113;-77
2021/12/02 05:39:05;;;;;;;0.00;0.00;;;3.10;99.90;;;;;;4998942;28;20018;-77
2021/12/02 05:41:31;;;;;;;1.48;0.00;;;3.10;99.90;;;;;;4981234;28;20018;-77
2021/12/02 05:43:57;;;;;;;5.00;0.00;;;3.10;99.90;;;;;;4999213;28;20038;-77
2021/12/02 05:46:22;;;;;;;4.20;0.00;;;3.10;99.90;;;;;;4981126;28;20027;-78
2021/12/02 05:48:48;;;;;;;2.50;0.00;;;3.20;99.90;;;;;;4981118;28;20113;-77
2021/12/02 05:51:14;;;;;;;1.83;0.32;;;3.20;99.90;;;;;;4981119;28;20033;-78
2021/12/02 05:53:39;;;;;;;1.85;0.10;;;3.20;99.90;;;;;;4981335;28;20046;-77
2021/12/02 05:56:05;;;;;;;1.17;0.00;;;3.20;99.90;;;;;;4980817;28;20069;-77
2021/12/02 05:58:30;;;;;;;2.25;0.00;;;3.20;99.90;;;;;;4998630;28;20031;-77
2021/12/02 06:00:56;;;;;;;0.25;0.08;;;3.10;99.90;;;;;;4997887;28;20527;-76
2021/12/02 06:03:24;;;;;;;1.40;0.15;;;3.10;99.90;;;;;;4980605;28;20372;-77
2021/12/02 06:05:50;;;;;;;3.97;0.47;;;3.00;99.90;;;;;;4997081;28;20510;-77
2021/12/02 06:08:16;;;;;;;0.45;0.00;;;2.90;99.90;;;;;;4980755;28;20050;-77
2021/12/02 06:10:42;;;;;;;0.85;0.00;;;2.90;99.90;;;;;;4997956;28;20018;-76
2021/12/02 06:13:07;;;;;;;2.33;0.00;;;2.80;99.90;;;;;;4997759;28;20053;-76
2021/12/02 06:15:33;;;;;;;0.57;0.00;;;2.70;99.90;;;;;;4997776;28;20030;-75
2021/12/02 06:17:58;;;;;;;0.88;0.00;;;2.60;99.90;;;;;;4997571;28;20032;-77
2021/12/02 06:20:24;;;;;;;0.47;0.00;;;2.60;99.90;;;;;;4998163;28;20038;-77
2021/12/02 06:22:49;;;;;;;5.25;0.05;;;2.60;99.90;;;;;;4997511;28;20042;-77
2021/12/02 06:27:46;;;;;;;1.35;0.00;;;2.50;99.90;;;;;;4997635;28;20396;-76
2021/12/02 06:30:14;;;;;;;1.65;0.00;;;2.40;99.90;;;;;;4998298;28;20029;-77
2021/12/02 06:32:40;;;;;;;0.93;0.00;;;2.40;99.90;;;;;;4997202;28;20080;-75
2021/12/02 06:35:07;;;;;;;0.80;0.03;;;2.30;99.90;;;;;;4997309;28;20022;-76
2021/12/02 06:37:33;;;;;;;1.13;0.00;;;2.40;99.90;;;;;;4997343;28;20026;-76
2021/12/02 06:39:59;;;;;;;3.95;0.05;;;2.40;99.90;;;;;;4997078;28;20037;-75
2021/12/02 06:42:24;;;;;;;1.90;0.00;;;2.40;99.90;;;;;;4997257;28;20027;-75
2021/12/02 06:44:50;;;;;;;2.50;0.68;;;2.30;99.90;;;;;;4996867;28;20396;-75
2021/12/02 06:47:15;;;;;;;0.22;0.00;;;2.40;99.90;;;;;;4996961;28;20382;-76
2021/12/02 06:49:41;;;;;;;0.25;0.00;;;2.40;99.90;;;;;;4979419;28;20077;-76
2021/12/02 06:52:12;;;;;;;1.60;0.00;;;2.50;99.90;;;;;;4979208;28;20060;-75
2021/12/02 06:54:38;;;;;;;1.55;0.13;;;2.50;99.90;;;;;;4997035;28;20026;-75
2021/12/02 06:57:05;;;;;;;0.75;0.10;;;2.50;99.90;;;;;;4979081;28;20026;-76
2021/12/02 06:59:30;;;;;;;0.77;0.10;;;2.60;99.90;;;;;;4996174;28;20026;-75
2021/12/02 07:01:56;;;;;;;1.73;0.20;;;3.30;99.90;;;;;;4995942;28;20019;-75
2021/12/02 07:04:21;;;;;;;2.28;0.17;;;2.60;99.90;;;;;;4978657;28;20164;-75
2021/12/02 07:06:47;;;;;;;3.80;0.00;;;2.60;99.90;;;;;;4996628;28;20105;-75
2021/12/02 07:09:13;;;;;;;5.28;0.13;;;2.70;99.90;;;;;;4978421;28;20061;-75
2021/12/02 07:11:38;;;;;;;1.10;0.00;;;2.70;99.90;;;;;;4996675;28;20033;-75
2021/12/02 07:14:07;;;;;;;1.08;0.00;;;2.70;99.90;;;;;;4996683;28;20032;-75
2021/12/02 07:16:33;;;;;;;1.65;0.00;;;2.80;99.90;;;;;;4997354;28;20029;-76
2021/12/02 07:19:06;;;;;;;2.10;0.00;;;2.80;99.90;;;;;;4996478;28;20164;-76
2021/12/02 07:21:36;;;;;;;5.20;0.40;;;2.70;99.90;;;;;;4996275;28;20073;-76
2021/12/02 07:24:02;;;;;;;3.67;0.28;;;2.70;99.90;;;;;;4996966;28;20026;-76
2021/12/02 07:26:28;;;;;;;1.83;0.43;;;2.80;99.90;;;;;;4996873;28;20026;-75
2021/12/02 07:28:53;;;;;;;1.15;0.00;;;2.70;99.90;;;;;;4996354;28;20030;-75
2021/12/02 07:31:20;;;;;;;1.48;0.00;;;2.70;99.90;;;;;;4996494;28;20434;-75
2021/12/02 07:33:50;;;;;;;3.92;0.40;;;2.70;99.90;;;;;;4996526;28;20026;-75
2021/12/02 07:36:18;;;;;;;1.08;0.00;;;2.60;99.90;;;;;;4996766;28;20023;-75
2021/12/02 07:38:44;;;;;;;0.10;0.00;;;2.60;99.90;;;;;;4996295;28;20109;-76
2021/12/02 07:41:10;;;;;;;0.68;0.00;;;2.50;99.90;;;;;;4996516;28;20099;-75
2021/12/02 07:43:39;;;;;;;4.75;0.30;;;2.50;99.90;;;;;;4976967;28;20109;-75
2021/12/02 07:46:04;;;;;;;;;;;2.50;99.90;;;;;;4996295;28;20102;-75
2021/12/02 07:48:30;;;;;;;1.58;0.30;;;2.50;99.90;;;;;;4996053;28;19918;-75
2021/12/02 07:51:00;;;;;;;0.00;0.00;;;2.70;99.90;;;;;;4996169;28;20054;-76
2021/12/02 07:53:28;;;;;;;4.68;0.70;;;2.80;99.90;;;;;;4995955;28;20491;-75
2021/12/02 07:55:55;;;;;;;6.13;1.10;;;2.80;99.90;;;;;;4978449;28;20050;-75
2021/12/02 07:58:23;;;;;;;4.45;0.00;;;2.70;99.90;;;;;;4978389;28;20086;-75
2021/12/02 08:00:50;;;;;;;4.15;0.00;;;2.70;99.90;;;;;;4995547;28;20026;-75
2021/12/02 08:03:16;;;;;;;3.20;0.10;;;2.60;99.90;;;;;;4994498;28;20042;-76
2021/12/02 08:05:42;;;;;;;1.08;0.00;;;2.60;99.90;;;;;;4995933;28;20475;-76
2021/12/02 08:08:09;;;;;;;7.32;0.20;;;2.50;99.90;;;;;;4995689;28;20109;-75
2021/12/02 08:10:35;;;;;;;5.88;0.00;;;2.50;99.90;;;;;;4978402;28;20368;-77
2021/12/02 08:13:02;;;;;;;4.38;0.00;;;2.50;99.90;;;;;;4995885;28;20046;-76
2021/12/02 08:15:30;;;;;;;0.10;0.00;;;2.50;99.90;;;;;;4996086;28;20022;-76
2021/12/02 08:17:56;;;;;;;0.88;0.00;;;2.50;99.90;;;;;;4978997;28;20026;-76
2021/12/02 08:20:25;;;;;;;0.68;0.00;;;2.50;99.90;;;;;;4980822;28;20037;-76
2021/12/02 08:22:51;;;;;;;0.22;0.00;;;2.50;99.90;;;;;;4959029;28;20027;-76
2021/12/02 08:25:20;;;;;;;2.53;0.00;;;2.60;99.90;;;;;;4989353;28;20030;-73
2021/12/02 08:27:46;;;;;;;0.00;0.00;;;2.60;99.90;;;;;;4994915;28;20032;-76
2021/12/02 08:30:14;;;;;;;1.02;0.00;;;2.60;99.90;;;;;;4994606;28;20029;-75
2021/12/02 08:32:42;;;;;;;1.35;0.00;;;2.70;99.90;;;;;;4994216;28;20018;-75
2021/12/02 08:35:09;;;;;;;0.60;0.00;;;2.70;99.90;;;;;;4994264;28;20018;-75
2021/12/02 08:37:36;;;;;;;1.60;0.00;;;2.80;99.90;;;;;;4977354;28;20022;-74
2021/12/02 08:40:04;;;;;;;0.40;0.00;;;2.80;99.90;;;;;;4994952;28;20037;-75
2021/12/02 08:42:32;;;;;;;0.20;0.00;;;2.80;99.90;;;;;;4977232;28;20113;-75
2021/12/02 08:44:58;;;;;;;2.30;0.00;;;2.90;99.90;;;;;;4994624;28;20080;-74
2021/12/02 08:47:26;;;;;;;0.30;0.00;;;2.90;99.90;;;;;;4994025;28;20080;-76
2021/12/02 08:49:54;;;;;;;0.95;0.00;;;3.00;99.90;;;;;;4977251;28;20088;-75
2021/12/02 08:52:21;;;;;;;1.05;0.10;;;3.00;99.90;;;;;;4994068;28;20030;-75
2021/12/02 08:54:49;;;;;;;1.88;0.30;;;3.10;99.90;;;;;;4994664;28;20023;-75
2021/12/02 08:57:18;;;;;;;1.45;0.00;;;3.10;99.90;;;;;;4994127;28;20539;-75
2021/12/02 08:59:44;;;;;;;1.08;0.00;;;3.20;99.90;;;;;;4994562;28;20094;-75
2021/12/02 09:02:10;;;;;;;0.50;0.00;;;3.40;99.90;;;;;;4994238;28;20060;-75
2021/12/02 09:04:36;;;;;;;2.25;0.00;;;3.60;99.90;;;;;;4994246;28;20026;-75
2021/12/02 09:07:01;;;;;;;1.92;0.00;;;3.80;99.90;;;;;;4976652;28;20110;-76
2021/12/02 09:09:27;;;;;;;1.55;0.00;;;4.10;99.90;;;;;;4993688;28;20080;-76
2021/12/02 09:11:55;;;;;;;1.17;0.03;;;4.30;99.90;;;;;;4994468;28;20029;-76
2021/12/02 09:14:21;;;;;;;0.70;0.00;;;4.50;99.90;;;;;;4994810;28;20097;-76
2021/12/02 09:16:50;;;;;;;3.15;0.00;;;4.70;99.90;;;;;;4977241;28;20057;-76
2021/12/02 09:19:17;;;;;;;3.38;0.15;;;4.80;99.90;;;;;;4976858;28;20022;-75
2021/12/02 09:21:42;;;;;;;2.13;0.00;;;5.00;99.90;;;;;;4994565;28;20030;-76
2021/12/02 09:24:08;;;;;;;0.52;0.00;;;5.10;99.90;;;;;;4994467;28;20487;-76
2021/12/02 09:26:36;;;;;;;2.00;0.15;;;5.30;99.90;;;;;;4977053;28;20032;-76
2021/12/02 09:29:02;;;;;;;2.08;0.10;;;5.40;99.90;;;;;;4994466;28;20022;-76
2021/12/02 09:31:27;;;;;;;0.10;0.00;;;5.40;99.90;;;;;;4994249;28;20095;-76
2021/12/02 09:33:53;;;;;;;3.08;0.20;;;5.40;99.90;;;;;;4994453;28;20022;-77
2021/12/02 09:36:20;;;;;;;1.50;0.00;;;5.30;99.90;;;;;;4994284;28;20058;-78
2021/12/02 09:38:46;;;;;;;0.30;0.00;;;5.20;99.90;;;;;;4994187;28;20026;-77
2021/12/02 09:41:12;;;;;;;3.67;0.05;;;5.10;99.90;;;;;;4976964;28;20117;-76
2021/12/02 09:43:38;;;;;;;4.47;0.00;;;4.90;99.90;;;;;;4976946;28;20109;-75
2021/12/02 09:46:04;;;;;;;0.25;0.00;;;4.70;99.90;;;;;;4994276;28;20027;-76
2021/12/02 09:48:30;;;;;;;0.85;0.03;;;4.60;99.90;;;;;;4976703;28;20015;-76
2021/12/02 09:51:11;;;;;;;0.65;0.00;;;4.40;99.90;;;;;;4993849;28;20042;-76
2021/12/02 09:53:56;;;;;;;1.70;0.00;;;4.30;99.90;;;;;;4994231;28;20490;-76
2021/12/02 09:56:27;;;;;;;1.48;0.00;;;4.20;99.90;;;;;;4976854;28;20467;-76
2021/12/02 09:58:56;;;;;;;1.17;0.00;;;4.10;99.90;;;;;;4976707;28;20089;-76
2021/12/02 10:01:35;;;;;;;1.10;0.00;;;3.90;99.90;;;;;;4994284;28;20022;-76
2021/12/02 10:04:03;;;;;;;0.40;0.00;;;3.80;99.90;;;;;;4976436;28;20069;-75
2021/12/02 10:06:32;;;;;;;4.47;0.00;;;3.80;99.90;;;;;;4994136;28;20038;-76
2021/12/02 10:09:13;;;;;;;0.65;0.00;;;3.70;99.90;;;;;;4994053;28;20383;-76
2021/12/02 10:14:15;;;;;;;0.63;0.00;;;3.70;99.90;;;;;;4994297;28;20384;-76
2021/12/02 10:16:44;;;;;;;0.73;0.00;;;3.80;99.90;;;;;;4976559;28;20027;-76
2021/12/02 10:19:11;;;;;;;0.03;0.00;;;4.00;99.90;;;;;;4977120;28;20033;-76
2021/12/02 10:21:42;;;;;;;1.23;0.00;;;4.30;99.90;;;;;;4994351;28;20391;-76
2021/12/02 10:24:11;;;;;;;0.28;0.00;;;4.50;99.90;;;;;;4981390;28;20395;-76
2021/12/02 10:26:39;;;;;;;;;;;4.80;99.90;;;;;;4999094;28;20027;-76
2021/12/02 10:29:10;;;;;;;0.03;0.00;;;4.80;99.90;;;;;;4996683;28;19968;-76
2021/12/02 10:31:37;;;;;;;0.93;0.00;;;4.80;99.90;;;;;;4997594;28;20033;-76
2021/12/02 10:34:06;;;;;;;0.00;0.00;;;4.70;99.90;;;;;;4998910;28;20022;-77
2021/12/02 10:36:40;;;;;;;0.10;0.00;;;4.50;99.90;;;;;;4998347;28;20022;-76
2021/12/02 10:39:22;;;;;;;0.00;0.00;;;4.20;99.90;;;;;;4980750;28;20057;-76
2021/12/02 10:42:04;;;;;;;0.30;0.00;;;4.00;99.90;;;;;;4980124;28;20030;-75
2021/12/02 10:44:34;;;;;;;2.72;0.98;;;3.80;99.90;;;;;;4964849;28;20117;-76
2021/12/02 10:47:12;;;;;;;2.22;0.00;;;3.70;99.90;;;;;;4997410;28;20030;-76
2021/12/02 10:49:42;;;;;;;1.25;0.00;;;3.60;99.90;;;;;;4979572;28;20081;-76
2021/12/02 10:52:21;;;;;;;0.77;0.00;;;3.60;99.90;;;;;;4997438;28;20114;-76
2021/12/02 10:54:51;;;;;;;0.47;0.00;;;3.50;99.90;;;;;;4996955;28;20360;-76
2021/12/02 10:57:19;;;;;;;0.00;0.00;;;3.50;99.90;;;;;;4996860;28;20030;-76
2021/12/02 10:59:55;;;;;;;0.15;0.00;;;3.50;99.90;;;;;;4996890;28;20025;-76
2021/12/02 11:02:34;;;;;;;0.65;0.00;;;3.50;99.90;;;;;;4997591;28;20506;-76
2021/12/02 11:05:25;;;;;;;0.10;0.00;;;3.50;99.90;;;;;;4979422;28;20054;-76
2021/12/02 11:08:11;;;;;;;2.28;0.00;;;3.50;99.90;;;;;;4997480;28;20109;-76
2021/12/02 11:10:39;;;;;;;0.28;0.00;;;3.60;99.90;;;;;;4978998;28;20026;-76
2021/12/02 11:13:07;;;;;;;0.55;0.00;;;3.60;99.90;;;;;;4996534;28;20026;-76
2021/12/02 11:15:35;;;;;;;0.13;0.00;;;3.60;99.90;;;;;;4996654;28;20109;-76
2021/12/02 11:18:04;;;;;;;1.20;0.00;;;3.60;99.90;;;;;;4996522;28;20026;-76
2021/12/02 11:20:31;;;;;;;0.55;0.00;;;3.70;99.90;;;;;;4996767;28;20031;-74
2021/12/02 11:23:18;;;;;;;1.08;0.08;;;3.70;99.90;;;;;;4996725;28;20068;-74
2021/12/02 11:25:53;;;;;;;4.18;0.00;;;3.70;99.90;;;;;;4997367;28;20045;-74
2021/12/02 11:28:23;;;;;;;2.05;0.08;;;3.70;99.90;;;;;;4996306;28;20105;-74
2021/12/02 11:30:48;;;;;;;1.65;0.00;;;3.70;99.90;;;;;;4997098;28;20030;-75
2021/12/02 11:33:18;;;;;;;4.95;0.00;;;3.70;99.90;;;;;;4996319;28;20045;-74
2021/12/02 11:35:45;;;;;;;1.45;0.00;;;3.70;99.90;;;;;;4995823;28;20019;-76
2021/12/02 11:38:22;;;;;;;1.85;0.10;;;3.60;99.90;;;;;;4996489;28;20023;-76
2021/12/02 11:40:51;;;;;;;0.45;0.00;;;3.60;99.90;;;;;;4996124;28;20089;-76
2021/12/02 11:43:18;;;;;;;;;;;3.60;99.90;;;;;;4996386;28;20117;-76
2021/12/02 11:45:46;;;;;;;0.50;0.00;;;3.60;99.90;;;;;;4995807;28;19906;-77
2021/12/02 11:48:33;;;;;;;1.83;0.00;;;3.60;99.90;;;;;;4996134;28;20088;-76
2021/12/02 11:51:01;;;;;;;2.90;0.10;;;3.60;99.90;;;;;;4978488;28;20431;-76
2021/12/02 11:53:28;;;;;;;1.60;0.05;;;3.70;99.90;;;;;;4978628;28;20019;-77
2021/12/02 11:55:56;;;;;;;4.75;0.15;;;3.70;99.90;;;;;;4978744;28;20053;-77
2021/12/02 11:58:22;;;;;;;9.07;0.13;;;3.80;99.90;;;;;;4996467;28;20476;-77
2021/12/02 12:00:48;;;;;;;0.30;0.00;;;3.80;99.90;;;;;;4996338;28;20077;-77
2021/12/02 12:03:22;;;;;;;1.20;0.00;;;3.90;99.90;;;;;;4996744;28;20046;-77
2021/12/02 12:05:59;;;;;;;2.45;0.00;;;4.00;99.90;;;;;;4996418;28;20062;-74
2021/12/02 12:08:48;;;;;;;0.43;0.00;;;4.00;99.90;;;;;;4978987;28;20030;-74
2021/12/02 12:11:24;;;;;;;3.58;0.20;;;4.20;99.90;;;;;;4996822;28;20022;-77
2021/12/02 12:14:05;;;;;;;1.00;0.00;;;4.40;99.90;;;;;;4995916;28;20027;-77
2021/12/02 12:16:41;;;;;;;0.93;0.00;;;4.60;99.90;;;;;;4997033;28;20054;-77
2021/12/02 12:19:29;;;;;;;1.75;0.00;;;4.70;99.90;;;;;;4996161;28;20034;-77
2021/12/02 12:22:00;;;;;;;1.58;0.00;;;4.90;99.90;;;;;;4996325;28;20435;-77
2021/12/02 12:24:44;;;;;;;1.85;0.00;;;5.00;99.90;;;;;;4995559;28;20105;-77
2021/12/02 12:27:11;;;;;;;1.23;0.17;;;5.20;99.90;;;;;;4995774;28;20381;-77
2021/12/02 12:29:37;;;;;;;0.25;0.00;;;5.40;99.90;;;;;;4995637;28;20030;-77
2021/12/02 12:32:15;;;;;;;0.40;0.00;;;5.60;99.90;;;;;;4995161;28;20022;-77
2021/12/02 12:37:21;;;;;;;0.25;0.00;;;5.90;99.90;;;;;;4995135;28;20034;-78
2021/12/02 12:40:07;;;;;;;2.83;0.10;;;6.20;99.90;;;;;;4995038;28;20030;-78
2021/12/02 12:42:34;;;;;;;0.85;0.00;;;6.20;99.90;;;;;;4977581;28;20479;-77
2021/12/02 12:45:01;;;;;;;1.45;0.00;;;6.00;99.90;;;;;;4977524;28;20061;-77
2021/12/02 12:47:49;;;;;;;2.65;0.00;;;5.80;99.90;;;;;;4995297;28;20033;-77
2021/12/02 12:50:40;;;;;;;0.20;0.00;;;5.50;99.90;;;;;;4978014;28;20113;-77
2021/12/02 12:53:06;;;;;;;0.52;0.00;;;5.30;99.90;;;;;;4977447;28;20061;-78
2021/12/02 12:55:49;;;;;;;0.85;0.00;;;5.30;99.90;;;;;;4994979;28;20034;-77
2021/12/02 12:58:16;;;;;;;1.27;0.00;;;5.30;99.90;;;;;;4995570;28;20056;-77
2021/12/02 13:00:44;;;;;;;1.95;0.00;;;5.50;99.90;;;;;;4995055;28;20036;-77
2021/12/02 13:03:26;;;;;;;0.50;0.00;;;5.70;99.90;;;;;;4995037;28;20440;-78
2021/12/02 13:06:01;;;;;;;1.67;0.00;;;5.90;99.90;;;;;;4995007;28;20022;-78
2021/12/02 13:08:37;;;;;;;0.17;0.00;;;6.20;99.90;;;;;;4977250;28;20391;-78
2021/12/02 13:11:12;;;;;;;0.73;0.00;;;6.50;99.90;;;;;;4995156;28;20129;-78
2021/12/02 13:13:39;;;;;;;0.35;0.00;;;6.80;99.90;;;;;;4994955;28;20356;-79
2021/12/02 13:16:20;;;;;;;0.40;0.05;;;7.10;99.90;;;;;;4977013;28;20092;-79
2021/12/02 13:18:54;;;;;;;2.58;0.10;;;7.30;99.90;;;;;;4994779;28;20085;-78
2021/12/02 13:21:29;;;;;;;2.13;0.00;;;7.30;99.90;;;;;;4977012;28;20018;-78
2021/12/02 13:24:02;;;;;;;1.65;0.00;;;7.40;99.90;;;;;;4977255;28;20065;-79
2021/12/02 13:26:33;;;;;;;3.20;0.05;;;7.30;99.90;;;;;;4976941;28;20023;-78
2021/12/02 13:29:07;;;;;;;0.85;0.00;;;7.20;99.90;;;;;;4977514;28;20089;-77
2021/12/02 13:31:33;;;;;;;1.30;0.00;;;7.10;99.90;;;;;;4994534;28;20033;-78
2021/12/02 13:34:04;;;;;;;1.75;0.00;;;7.00;99.90;;;;;;4976890;28;20026;-78
2021/12/02 13:36:45;;;;;;;2.80;0.00;;;6.90;99.90;;;;;;4976965;28;20121;-79
2021/12/02 13:39:17;;;;;;;0.52;0.00;;;6.80;99.90;;;;;;4994544;28;20553;-79